Portada
METAR-TAF:

METAR-TAF

Aeropuertos :

Aeropuerto de Limoges

Limoges, Francia

latitud: 45-52N, longitud: 001-11E, altitud: 396 m

Observación

El informe se hizo hace 10 minutos, a las 15:30 UTC
Viento 8 kt del norte, variando entre noroeste y norte-noreste
Temperatura 17°C
Humedad 88%
Presión 1022 hPa
Visibilidad 10 km o más
Cielo cubierto a una altura de 1000 ft

METAR: LFBL 171530Z AUTO 36008KT 320V030 9999 OVC010 17/15 Q1022 BECMG BKN016

Hora: 17:40 (15:40 UTC)

Pronóstico

El informe se hizo hace 1 hora y 35 minutos, a las 14:05 UTC
Pronóstico válido del 17 a las 14 UTC al 18 a las 12 UTC
Viento 8 kt del norte-noroeste
Visibilidad 10 km o más
Cielo cubierto a una altura de 500 ft
Evolucionando progresivamente
del 17 a las 14 UTC al 17 a las 16 UTC
Cielo nuboso a una altura de 1600 ft

TAF: LFBL 171405Z 1714/1812 34008KT 9999 OVC005 BECMG 1714/1716 BKN016

Observaciones y pronósticos meteorológicos de más de 4000 aeropuertos (mensajes METAR y TAF).

Los puntos amarillos y rojos representan las estaciones disponibles.

Ponga el ratón en el punto deseado para ver el nombre de la estación.

Haga clic para ver las observaciones y los pronósticos meteorológicos.

Para cambiar el mapa : haga clic en los botones verdes con una cruz de color negro para hacer un zoom, en el botón verde con un guión para alejar o en las flechas verdes para mapas adyacentes.


METAR-TAF: